sensor_id;sensor_type;location;lat;lon;timestamp;pressure;altitude;pressure_sealevel;temperature;humidity
41898;BME280;27576;53.366;-1.498;2023-01-29T00:01:06;101488.66;;;4.85;100.00
41898;BME280;27576;53.366;-1.498;2023-01-29T00:03:32;101511.34;;;4.94;100.00
41898;BME280;27576;53.366;-1.498;2023-01-29T00:05:59;101502.47;;;4.87;100.00
41898;BME280;27576;53.366;-1.498;2023-01-29T00:08:29;101513.69;;;4.89;100.00
41898;BME280;27576;53.366;-1.498;2023-01-29T00:11:00;101508.78;;;4.94;100.00
41898;BME280;27576;53.366;-1.498;2023-01-29T00:13:26;101463.03;;;4.71;100.00
41898;BME280;27576;53.366;-1.498;2023-01-29T00:15:56;101492.03;;;4.84;100.00
41898;BME280;27576;53.366;-1.498;2023-01-29T00:18:22;101498.44;;;4.92;100.00
41898;BME280;27576;53.366;-1.498;2023-01-29T00:20:48;101478.84;;;4.78;100.00
41898;BME280;27576;53.366;-1.498;2023-01-29T00:23:13;101495.78;;;4.91;100.00
41898;BME280;27576;53.366;-1.498;2023-01-29T00:25:40;101494.91;;;4.90;100.00
41898;BME280;27576;53.366;-1.498;2023-01-29T00:28:06;101490.63;;;4.91;100.00
41898;BME280;27576;53.366;-1.498;2023-01-29T00:30:31;101452.84;;;4.72;100.00
41898;BME280;27576;53.366;-1.498;2023-01-29T00:32:56;101466.81;;;4.77;100.00
41898;BME280;27576;53.366;-1.498;2023-01-29T00:35:22;101479.34;;;4.87;100.00
41898;BME280;27576;53.366;-1.498;2023-01-29T00:37:47;101479.34;;;4.87;100.00
41898;BME280;27576;53.366;-1.498;2023-01-29T00:40:12;101470.31;;;4.79;100.00
41898;BME280;27576;53.366;-1.498;2023-01-29T00:42:38;101467.75;;;4.79;100.00
41898;BME280;27576;53.366;-1.498;2023-01-29T00:45:22;101434.47;;;4.64;100.00
41898;BME280;27576;53.366;-1.498;2023-01-29T00:47:47;101416.88;;;4.56;100.00
41898;BME280;27576;53.366;-1.498;2023-01-29T00:50:12;101444.50;;;4.76;100.00
41898;BME280;27576;53.366;-1.498;2023-01-29T00:52:38;101432.03;;;4.67;100.00
41898;BME280;27576;53.366;-1.498;2023-01-29T00:55:07;101461.84;;;4.80;100.00
41898;BME280;27576;53.366;-1.498;2023-01-29T00:57:34;101444.59;;;4.78;100.00
41898;BME280;27576;53.366;-1.498;2023-01-29T01:00:01;101418.19;;;4.64;100.00
41898;BME280;27576;53.366;-1.498;2023-01-29T01:02:27;101424.91;;;4.62;100.00
41898;BME280;27576;53.366;-1.498;2023-01-29T01:05:13;101432.31;;;4.72;100.00
41898;BME280;27576;53.366;-1.498;2023-01-29T01:07:46;101422.69;;;4.68;100.00
41898;BME280;27576;53.366;-1.498;2023-01-29T01:10:30;101405.09;;;4.59;100.00
41898;BME280;27576;53.366;-1.498;2023-01-29T01:13:00;101418.97;;;4.63;100.00
41898;BME280;27576;53.366;-1.498;2023-01-29T01:15:32;101419.31;;;4.69;100.00
41898;BME280;27576;53.366;-1.498;2023-01-29T01:17:59;101420.91;;;4.67;100.00
41898;BME280;27576;53.366;-1.498;2023-01-29T01:20:27;101388.66;;;4.56;100.00
41898;BME280;27576;53.366;-1.498;2023-01-29T01:22:53;101397.66;;;4.64;100.00
41898;BME280;27576;53.366;-1.498;2023-01-29T01:25:20;101394.94;;;4.61;100.00
41898;BME280;27576;53.366;-1.498;2023-01-29T01:27:46;101406.88;;;4.60;100.00
41898;BME280;27576;53.366;-1.498;2023-01-29T01:30:14;101392.19;;;4.58;100.00
41898;BME280;27576;53.366;-1.498;2023-01-29T01:32:40;101391.31;;;4.57;100.00
41898;BME280;27576;53.366;-1.498;2023-01-29T01:35:07;101393.00;;;4.57;100.00
41898;BME280;27576;53.366;-1.498;2023-01-29T01:37:33;101391.78;;;4.50;100.00
41898;BME280;27576;53.366;-1.498;2023-01-29T01:40:05;101388.34;;;4.50;100.00
41898;BME280;27576;53.366;-1.498;2023-01-29T01:42:40;101383.22;;;4.50;100.00
41898;BME280;27576;53.366;-1.498;2023-01-29T01:45:07;101353.22;;;4.32;100.00
41898;BME280;27576;53.366;-1.498;2023-01-29T01:47:42;101354.88;;;4.32;100.00
41898;BME280;27576;53.366;-1.498;2023-01-29T01:50:38;101387.53;;;4.51;100.00
41898;BME280;27576;53.366;-1.498;2023-01-29T01:53:09;101390.91;;;4.50;100.00
41898;BME280;27576;53.366;-1.498;2023-01-29T01:55:41;101370.53;;;4.36;100.00
41898;BME280;27576;53.366;-1.498;2023-01-29T01:58:11;101377.59;;;4.40;100.00
41898;BME280;27576;53.366;-1.498;2023-01-29T02:00:38;101376.63;;;4.38;100.00
41898;BME280;27576;53.366;-1.498;2023-01-29T02:03:03;101392.34;;;4.45;100.00
41898;BME280;27576;53.366;-1.498;2023-01-29T02:05:48;101346.69;;;4.23;100.00
41898;BME280;27576;53.366;-1.498;2023-01-29T02:08:41;101372.13;;;4.34;100.00
41898;BME280;27576;53.366;-1.498;2023-01-29T02:11:29;101255.66;;;3.67;100.00
41898;BME280;27576;53.366;-1.498;2023-01-29T02:13:55;101369.72;;;4.37;100.00
41898;BME280;27576;53.366;-1.498;2023-01-29T02:16:22;101377.50;;;4.39;100.00
41898;BME280;27576;53.366;-1.498;2023-01-29T02:18:48;101357.38;;;4.30;100.00
41898;BME280;27576;53.366;-1.498;2023-01-29T02:29:09;101355.78;;;4.32;100.00
41898;BME280;27576;53.366;-1.498;2023-01-29T02:32:19;101360.00;;;4.32;100.00
41898;BME280;27576;53.366;-1.498;2023-01-29T02:35:08;101355.69;;;4.31;100.00
41898;BME280;27576;53.366;-1.498;2023-01-29T02:40:50;101353.03;;;4.29;100.00
41898;BME280;27576;53.366;-1.498;2023-01-29T02:43:44;101352.22;;;4.30;100.00
41898;BME280;27576;53.366;-1.498;2023-01-29T02:49:01;101353.03;;;4.29;100.00
41898;BME280;27576;53.366;-1.498;2023-01-29T02:51:37;101348.78;;;4.30;100.00
41898;BME280;27576;53.366;-1.498;2023-01-29T02:54:09;101343.41;;;4.25;100.00
41898;BME280;27576;53.366;-1.498;2023-01-29T02:56:58;101309.50;;;4.14;100.00
41898;BME280;27576;53.366;-1.498;2023-01-29T02:59:30;101338.53;;;4.30;100.00
41898;BME280;27576;53.366;-1.498;2023-01-29T03:02:08;101319.34;;;4.23;100.00
41898;BME280;27576;53.366;-1.498;2023-01-29T03:04:42;101311.66;;;4.23;100.00
41898;BME280;27576;53.366;-1.498;2023-01-29T03:07:16;101287.06;;;4.10;100.00
41898;BME280;27576;53.366;-1.498;2023-01-29T03:10:05;101298.66;;;4.20;100.00
41898;BME280;27576;53.366;-1.498;2023-01-29T03:12:37;101303.97;;;4.23;100.00
41898;BME280;27576;53.366;-1.498;2023-01-29T03:15:10;101249.38;;;3.93;100.00
41898;BME280;27576;53.366;-1.498;2023-01-29T03:17:47;101318.81;;;4.29;100.00
41898;BME280;27576;53.366;-1.498;2023-01-29T03:20:18;101320.00;;;4.35;100.00
41898;BME280;27576;53.366;-1.498;2023-01-29T03:22:51;101301.56;;;4.26;100.00
41898;BME280;27576;53.366;-1.498;2023-01-29T03:25:20;101286.81;;;4.22;100.00
41898;BME280;27576;53.366;-1.498;2023-01-29T03:28:05;101317.44;;;4.35;100.00
41898;BME280;27576;53.366;-1.498;2023-01-29T03:30:56;101307.03;;;4.32;100.00
41898;BME280;27576;53.366;-1.498;2023-01-29T03:34:07;101327.44;;;4.47;100.00
41898;BME280;27576;53.366;-1.498;2023-01-29T03:36:38;101305.56;;;4.37;100.00
41898;BME280;27576;53.366;-1.498;2023-01-29T03:39:09;101299.22;;;4.31;100.00
41898;BME280;27576;53.366;-1.498;2023-01-29T03:41:57;101314.84;;;4.52;100.00
41898;BME280;27576;53.366;-1.498;2023-01-29T03:53:00;101295.28;;;4.54;100.00
41898;BME280;27576;53.366;-1.498;2023-01-29T03:55:40;101290.75;;;4.48;100.00
41898;BME280;27576;53.366;-1.498;2023-01-29T04:01:39;101252.09;;;4.29;100.00
41898;BME280;27576;53.366;-1.498;2023-01-29T04:06:34;101269.94;;;4.43;100.00
41898;BME280;27576;53.366;-1.498;2023-01-29T04:09:15;101258.41;;;4.35;100.00
41898;BME280;27576;53.366;-1.498;2023-01-29T04:11:49;101265.31;;;4.53;100.00
41898;BME280;27576;53.366;-1.498;2023-01-29T04:14:16;101237.25;;;4.39;100.00
41898;BME280;27576;53.366;-1.498;2023-01-29T04:16:48;101214.16;;;4.23;100.00
41898;BME280;27576;53.366;-1.498;2023-01-29T04:19:15;101254.72;;;4.47;100.00
41898;BME280;27576;53.366;-1.498;2023-01-29T04:21:41;101251.34;;;4.48;100.00
41898;BME280;27576;53.366;-1.498;2023-01-29T04:24:07;101261.78;;;4.51;100.00
41898;BME280;27576;53.366;-1.498;2023-01-29T04:26:56;101230.19;;;4.35;100.00
41898;BME280;27576;53.366;-1.498;2023-01-29T04:35:00;101242.03;;;4.50;100.00
41898;BME280;27576;53.366;-1.498;2023-01-29T04:37:43;101230.50;;;4.41;100.00
41898;BME280;27576;53.366;-1.498;2023-01-29T04:43:08;101235.16;;;4.49;100.00
41898;BME280;27576;53.366;-1.498;2023-01-29T04:46:26;101236.09;;;4.51;100.00
41898;BME280;27576;53.366;-1.498;2023-01-29T04:48:45;101230.25;;;4.53;100.00
41898;BME280;27576;53.366;-1.498;2023-01-29T04:51:23;101183.06;;;4.33;100.00
41898;BME280;27576;53.366;-1.498;2023-01-29T04:59:20;101209.78;;;4.55;100.00
41898;BME280;27576;53.366;-1.498;2023-01-29T05:01:47;101175.38;;;4.33;100.00
41898;BME280;27576;53.366;-1.498;2023-01-29T05:04:15;101209.78;;;4.55;100.00
41898;BME280;27576;53.366;-1.498;2023-01-29T05:06:43;101188.00;;;4.47;100.00
41898;BME280;27576;53.366;-1.498;2023-01-29T05:09:13;101191.66;;;4.52;100.00
41898;BME280;27576;53.366;-1.498;2023-01-29T05:11:39;101145.88;;;4.25;100.00
41898;BME280;27576;53.366;-1.498;2023-01-29T05:14:07;101176.19;;;4.50;100.00
41898;BME280;27576;53.366;-1.498;2023-01-29T05:17:07;101192.03;;;4.59;100.00
41898;BME280;27576;53.366;-1.498;2023-01-29T05:19:34;101145.38;;;4.32;100.00
41898;BME280;27576;53.366;-1.498;2023-01-29T05:21:59;101134.97;;;4.29;100.00
41898;BME280;27576;53.366;-1.498;2023-01-29T05:24:28;101170.19;;;4.50;100.00
41898;BME280;27576;53.366;-1.498;2023-01-29T05:26:53;101160.56;;;4.46;100.00
41898;BME280;27576;53.366;-1.498;2023-01-29T05:29:41;101159.91;;;4.50;100.00
41898;BME280;27576;53.366;-1.498;2023-01-29T05:32:09;101123.25;;;4.34;100.00
41898;BME280;27576;53.366;-1.498;2023-01-29T05:34:34;101154.78;;;4.50;100.00
41898;BME280;27576;53.366;-1.498;2023-01-29T05:36:59;101162.06;;;4.58;100.00
41898;BME280;27576;53.366;-1.498;2023-01-29T05:39:25;101147.97;;;4.50;100.00
41898;BME280;27576;53.366;-1.498;2023-01-29T05:41:50;101167.41;;;4.63;100.00
41898;BME280;27576;53.366;-1.498;2023-01-29T05:44:16;101151.63;;;4.55;100.00
41898;BME280;27576;53.366;-1.498;2023-01-29T05:46:41;101127.88;;;4.41;100.00
41898;BME280;27576;53.366;-1.498;2023-01-29T05:49:08;101164.84;;;4.63;100.00
41898;BME280;27576;53.366;-1.498;2023-01-29T05:51:33;101133.00;;;4.41;100.00
41898;BME280;27576;53.366;-1.498;2023-01-29T05:53:58;101143.28;;;4.59;100.00
41898;BME280;27576;53.366;-1.498;2023-01-29T05:56:24;101135.50;;;4.58;100.00
41898;BME280;27576;53.366;-1.498;2023-01-29T05:58:49;101123.13;;;4.49;100.00
41898;BME280;27576;53.366;-1.498;2023-01-29T06:01:21;101144.31;;;4.63;100.00
41898;BME280;27576;53.366;-1.498;2023-01-29T06:03:46;101135.34;;;4.55;100.00
41898;BME280;27576;53.366;-1.498;2023-01-29T06:06:12;101147.53;;;4.59;100.00
41898;BME280;27576;53.366;-1.498;2023-01-29T06:08:38;101132.94;;;4.58;100.00
41898;BME280;27576;53.366;-1.498;2023-01-29T06:11:06;101117.88;;;4.48;100.00
41898;BME280;27576;53.366;-1.498;2023-01-29T06:13:32;101088.19;;;4.35;100.00
41898;BME280;27576;53.366;-1.498;2023-01-29T06:15:57;101116.44;;;4.53;100.00
41898;BME280;27576;53.366;-1.498;2023-01-29T06:18:23;101106.69;;;4.46;100.00
41898;BME280;27576;53.366;-1.498;2023-01-29T06:20:48;101114.53;;;4.49;100.00
41898;BME280;27576;53.366;-1.498;2023-01-29T06:23:15;101033.78;;;4.06;100.00
41898;BME280;27576;53.366;-1.498;2023-01-29T06:25:40;101120.47;;;4.48;100.00
41898;BME280;27576;53.366;-1.498;2023-01-29T06:28:05;101120.72;;;4.52;100.00
41898;BME280;27576;53.366;-1.498;2023-01-29T06:30:31;101084.75;;;4.34;100.00
41898;BME280;27576;53.366;-1.498;2023-01-29T06:32:57;101122.25;;;4.49;100.00
41898;BME280;27576;53.366;-1.498;2023-01-29T06:35:23;101133.75;;;4.57;100.00
41898;BME280;27576;53.366;-1.498;2023-01-29T06:37:49;101091.50;;;4.32;100.00
41898;BME280;27576;53.366;-1.498;2023-01-29T06:40:14;101107.03;;;4.35;100.00
41898;BME280;27576;53.366;-1.498;2023-01-29T06:42:39;101087.97;;;4.30;100.00
41898;BME280;27576;53.366;-1.498;2023-01-29T06:45:05;101108.72;;;4.35;100.00
41898;BME280;27576;53.366;-1.498;2023-01-29T06:47:31;101123.03;;;4.48;100.00
41898;BME280;27576;53.366;-1.498;2023-01-29T06:49:56;101121.28;;;4.47;100.00
41898;BME280;27576;53.366;-1.498;2023-01-29T06:52:21;101091.19;;;4.26;100.00
41898;BME280;27576;53.366;-1.498;2023-01-29T06:54:47;101116.50;;;4.36;100.00
41898;BME280;27576;53.366;-1.498;2023-01-29T06:57:12;101112.16;;;4.35;100.00
41898;BME280;27576;53.366;-1.498;2023-01-29T06:59:37;101088.25;;;4.18;100.00
41898;BME280;27576;53.366;-1.498;2023-01-29T07:02:11;101090.81;;;4.18;100.00
41898;BME280;27576;53.366;-1.498;2023-01-29T07:04:37;101102.19;;;4.24;100.00
41898;BME280;27576;53.366;-1.498;2023-01-29T07:07:03;101089.72;;;4.13;100.00
41898;BME280;27576;53.366;-1.498;2023-01-29T07:09:29;101082.59;;;4.08;100.00
41898;BME280;27576;53.366;-1.498;2023-01-29T07:11:54;101097.41;;;4.13;100.00
41898;BME280;27576;53.366;-1.498;2023-01-29T07:14:19;101104.94;;;4.10;100.00
41898;BME280;27576;53.366;-1.498;2023-01-29T07:16:45;101100.53;;;4.08;100.00
41898;BME280;27576;53.366;-1.498;2023-01-29T07:19:10;101077.66;;;3.94;100.00
41898;BME280;27576;53.366;-1.498;2023-01-29T07:21:36;101078.38;;;3.92;100.00
41898;BME280;27576;53.366;-1.498;2023-01-29T07:24:01;101086.44;;;4.00;100.00
41898;BME280;27576;53.366;-1.498;2023-01-29T07:26:27;101074.22;;;3.94;100.00
41898;BME280;27576;53.366;-1.498;2023-01-29T07:28:53;101054.25;;;3.88;100.00
41898;BME280;27576;53.366;-1.498;2023-01-29T07:31:18;101062.59;;;3.84;100.00
41898;BME280;27576;53.366;-1.498;2023-01-29T07:33:44;101075.09;;;3.94;100.00
41898;BME280;27576;53.366;-1.498;2023-01-29T07:36:10;101062.69;;;3.86;100.00
41898;BME280;27576;53.366;-1.498;2023-01-29T07:38:36;101049.00;;;3.69;100.00
41898;BME280;27576;53.366;-1.498;2023-01-29T07:41:01;101089.94;;;3.84;100.00
41898;BME280;27576;53.366;-1.498;2023-01-29T07:43:26;101054.50;;;3.59;100.00
41898;BME280;27576;53.366;-1.498;2023-01-29T07:45:52;101042.97;;;3.51;100.00
41898;BME280;27576;53.366;-1.498;2023-01-29T07:48:18;101063.06;;;3.59;100.00
41898;BME280;27576;53.366;-1.498;2023-01-29T07:50:43;101058.88;;;3.61;100.00
41898;BME280;27576;53.366;-1.498;2023-01-29T07:53:15;101076.56;;;3.73;100.00
41898;BME280;27576;53.366;-1.498;2023-01-29T07:55:43;101058.16;;;3.64;100.00
41898;BME280;27576;53.366;-1.498;2023-01-29T07:58:09;101051.13;;;3.60;100.00
41898;BME280;27576;53.366;-1.498;2023-01-29T08:00:35;101050.00;;;3.55;100.00
41898;BME280;27576;53.366;-1.498;2023-01-29T08:03:06;101063.28;;;3.64;100.00
41898;BME280;27576;53.366;-1.498;2023-01-29T08:05:32;101077.84;;;3.65;100.00
41898;BME280;27576;53.366;-1.498;2023-01-29T08:07:57;101073.13;;;3.73;100.00
41898;BME280;27576;53.366;-1.498;2023-01-29T08:10:23;101032.72;;;3.51;100.00
41898;BME280;27576;53.366;-1.498;2023-01-29T08:13:00;101070.94;;;3.80;100.00
41898;BME280;27576;53.366;-1.498;2023-01-29T08:15:26;101063.25;;;3.80;100.00
41898;BME280;27576;53.366;-1.498;2023-01-29T08:17:52;101081.59;;;3.88;100.00
41898;BME280;27576;53.366;-1.498;2023-01-29T08:20:18;101036.19;;;3.69;100.00
41898;BME280;27576;53.366;-1.498;2023-01-29T08:22:44;101055.78;;;3.85;100.00
41898;BME280;27576;53.366;-1.498;2023-01-29T08:25:09;101014.66;;;3.65;100.00
41898;BME280;27576;53.366;-1.498;2023-01-29T08:27:35;101042.03;;;3.83;100.00
41898;BME280;27576;53.366;-1.498;2023-01-29T08:30:00;101022.41;;;3.83;100.00
41898;BME280;27576;53.366;-1.498;2023-01-29T08:32:26;101039.53;;;3.84;100.00
41898;BME280;27576;53.366;-1.498;2023-01-29T08:34:52;101020.50;;;3.79;100.00
41898;BME280;27576;53.366;-1.498;2023-01-29T08:37:17;101053.34;;;4.04;100.00
41898;BME280;27576;53.366;-1.498;2023-01-29T08:39:42;101042.69;;;3.97;100.00
41898;BME280;27576;53.366;-1.498;2023-01-29T08:42:08;101050.72;;;4.03;100.00
41898;BME280;27576;53.366;-1.498;2023-01-29T08:44:33;101050.13;;;4.08;100.00
41898;BME280;27576;53.366;-1.498;2023-01-29T08:46:58;101025.94;;;4.03;100.00
41898;BME280;27576;53.366;-1.498;2023-01-29T08:49:24;101030.34;;;4.06;100.00
41898;BME280;27576;53.366;-1.498;2023-01-29T08:51:49;101016.56;;;4.04;100.00
41898;BME280;27576;53.366;-1.498;2023-01-29T08:54:17;101014.00;;;4.04;100.00
41898;BME280;27576;53.366;-1.498;2023-01-29T08:56:43;101026.53;;;4.15;100.00
41898;BME280;27576;53.366;-1.498;2023-01-29T08:59:09;101037.09;;;4.22;100.00
41898;BME280;27576;53.366;-1.498;2023-01-29T09:01:35;101023.41;;;4.21;100.00
41898;BME280;27576;53.366;-1.498;2023-01-29T09:04:00;101027.06;;;4.26;100.00
41898;BME280;27576;53.366;-1.498;2023-01-29T09:06:25;100991.94;;;4.07;100.00
41898;BME280;27576;53.366;-1.498;2023-01-29T09:08:51;101024.66;;;4.29;100.00
41898;BME280;27576;53.366;-1.498;2023-01-29T09:11:16;101028.31;;;4.34;100.00
41898;BME280;27576;53.366;-1.498;2023-01-29T09:13:41;100970.50;;;4.05;100.00
41898;BME280;27576;53.366;-1.498;2023-01-29T09:16:08;101036.97;;;4.36;100.00
41898;BME280;27576;53.366;-1.498;2023-01-29T09:18:33;101029.41;;;4.39;100.00
41898;BME280;27576;53.366;-1.498;2023-01-29T09:20:59;101020.59;;;4.34;100.00
41898;BME280;27576;53.366;-1.498;2023-01-29T09:23:26;101007.78;;;4.34;100.00
41898;BME280;27576;53.366;-1.498;2023-01-29T09:25:51;100997.66;;;4.37;100.00
41898;BME280;27576;53.366;-1.498;2023-01-29T09:28:16;100995.16;;;4.39;100.00
41898;BME280;27576;53.366;-1.498;2023-01-29T09:30:43;101002.41;;;4.48;100.00
41898;BME280;27576;53.366;-1.498;2023-01-29T09:33:08;101002.19;;;4.61;100.00
41898;BME280;27576;53.366;-1.498;2023-01-29T09:35:33;101007.16;;;4.76;100.00
41898;BME280;27576;53.366;-1.498;2023-01-29T09:37:59;100962.88;;;4.62;100.00
41898;BME280;27576;53.366;-1.498;2023-01-29T09:43:18;100997.50;;;4.89;100.00
41898;BME280;27576;53.366;-1.498;2023-01-29T09:45:58;100998.56;;;4.95;100.00
41898;BME280;27576;53.366;-1.498;2023-01-29T09:48:26;100960.31;;;4.81;100.00
41898;BME280;27576;53.366;-1.498;2023-01-29T09:50:55;100966.19;;;4.98;100.00
41898;BME280;27576;53.366;-1.498;2023-01-29T09:56:31;100972.34;;;5.21;100.00
41898;BME280;27576;53.366;-1.498;2023-01-29T09:58:39;100976.75;;;5.24;100.00
41898;BME280;27576;53.366;-1.498;2023-01-29T10:18:29;100954.16;;;5.57;100.00
41898;BME280;27576;53.366;-1.498;2023-01-29T10:20:45;100936.13;;;5.55;100.00
41898;BME280;27576;53.366;-1.498;2023-01-29T10:23:20;100944.00;;;5.60;100.00
41898;BME280;27576;53.366;-1.498;2023-01-29T10:25:49;100928.13;;;5.49;100.00
41898;BME280;27576;53.366;-1.498;2023-01-29T10:28:22;100956.13;;;5.62;100.00
41898;BME280;27576;53.366;-1.498;2023-01-29T10:30:53;100941.19;;;5.54;100.00
41898;BME280;27576;53.366;-1.498;2023-01-29T10:33:32;100935.53;;;5.41;100.00
41898;BME280;27576;53.366;-1.498;2023-01-29T10:36:04;100937.53;;;5.49;100.00
41898;BME280;27576;53.366;-1.498;2023-01-29T10:38:47;100966.41;;;5.62;100.00
41898;BME280;27576;53.366;-1.498;2023-01-29T10:47:05;100940.75;;;5.64;100.00
41898;BME280;27576;53.366;-1.498;2023-01-29T10:55:23;100915.34;;;5.72;100.00
41898;BME280;27576;53.366;-1.498;2023-01-29T10:58:10;100923.56;;;5.84;100.00
41898;BME280;27576;53.366;-1.498;2023-01-29T11:00:40;100894.66;;;5.69;100.00
41898;BME280;27576;53.366;-1.498;2023-01-29T11:08:37;100877.22;;;5.61;100.00
41898;BME280;27576;53.366;-1.498;2023-01-29T11:11:10;100908.47;;;5.71;100.00
41898;BME280;27576;53.366;-1.498;2023-01-29T11:13:41;100913.31;;;5.63;100.00
41898;BME280;27576;53.366;-1.498;2023-01-29T11:16:09;100873.75;;;5.38;100.00
41898;BME280;27576;53.366;-1.498;2023-01-29T11:18:55;100902.25;;;5.45;100.00
41898;BME280;27576;53.366;-1.498;2023-01-29T11:21:21;100866.09;;;5.19;100.00
41898;BME280;27576;53.366;-1.498;2023-01-29T11:23:47;100900.91;;;5.33;100.00
41898;BME280;27576;53.366;-1.498;2023-01-29T11:26:17;100848.53;;;5.09;100.00
41898;BME280;27576;53.366;-1.498;2023-01-29T11:28:46;100860.31;;;5.04;100.00
41898;BME280;27576;53.366;-1.498;2023-01-29T11:31:22;100904.19;;;5.29;100.00
41898;BME280;27576;53.366;-1.498;2023-01-29T11:33:52;100872.88;;;5.18;100.00
41898;BME280;27576;53.366;-1.498;2023-01-29T11:39:20;100890.28;;;5.45;100.00
41898;BME280;27576;53.366;-1.498;2023-01-29T11:44:35;100892.16;;;5.70;100.00
41898;BME280;27576;53.366;-1.498;2023-01-29T11:47:20;100901.06;;;5.78;100.00
41898;BME280;27576;53.366;-1.498;2023-01-29T11:49:55;100880.59;;;5.81;100.00
41898;BME280;27576;53.366;-1.498;2023-01-29T11:52:24;100836.91;;;5.60;100.00
41898;BME280;27576;53.366;-1.498;2023-01-29T11:54:55;100863.25;;;5.76;100.00
41898;BME280;27576;53.366;-1.498;2023-01-29T11:59:55;100836.53;;;5.72;100.00
41898;BME280;27576;53.366;-1.498;2023-01-29T12:02:37;100860.41;;;5.90;100.00
41898;BME280;27576;53.366;-1.498;2023-01-29T12:05:21;100855.47;;;5.95;100.00
41898;BME280;27576;53.366;-1.498;2023-01-29T12:07:55;100842.63;;;5.97;100.00
41898;BME280;27576;53.366;-1.498;2023-01-29T12:11:05;100859.63;;;6.14;100.00
41898;BME280;27576;53.366;-1.498;2023-01-29T12:13:31;100847.44;;;6.10;100.00
41898;BME280;27576;53.366;-1.498;2023-01-29T12:18:43;100875.00;;;6.59;100.00
41898;BME280;27576;53.366;-1.498;2023-01-29T12:21:17;100855.63;;;6.69;100.00
41898;BME280;27576;53.366;-1.498;2023-01-29T12:23:56;100851.53;;;6.75;100.00
41898;BME280;27576;53.366;-1.498;2023-01-29T12:26:30;100831.19;;;6.57;100.00
41898;BME280;27576;53.366;-1.498;2023-01-29T12:32:10;100814.84;;;6.57;100.00
41898;BME280;27576;53.366;-1.498;2023-01-29T12:34:46;100825.16;;;6.57;100.00
41898;BME280;27576;53.366;-1.498;2023-01-29T12:37:36;100837.63;;;6.70;100.00
41898;BME280;27576;53.366;-1.498;2023-01-29T12:40:13;100841.91;;;6.70;100.00
41898;BME280;27576;53.366;-1.498;2023-01-29T12:42:40;100797.63;;;6.56;100.00
41898;BME280;27576;53.366;-1.498;2023-01-29T12:45:08;100803.88;;;6.62;100.00
41898;BME280;27576;53.366;-1.498;2023-01-29T12:48:00;100818.94;;;6.76;100.00
41898;BME280;27576;53.366;-1.498;2023-01-29T12:50:32;100820.06;;;6.58;100.00
41898;BME280;27576;53.366;-1.498;2023-01-29T12:53:24;100818.69;;;6.68;100.00
41898;BME280;27576;53.366;-1.498;2023-01-29T12:56:00;100811.66;;;6.64;100.00
41898;BME280;27576;53.366;-1.498;2023-01-29T12:58:34;100822.41;;;6.52;100.00
41898;BME280;27576;53.366;-1.498;2023-01-29T13:01:28;100800.38;;;6.36;100.00
41898;BME280;27576;53.366;-1.498;2023-01-29T13:06:30;100784.63;;;6.05;100.00
41898;BME280;27576;53.366;-1.498;2023-01-29T13:09:02;100820.44;;;5.99;100.00
41898;BME280;27576;53.366;-1.498;2023-01-29T13:12:10;100802.44;;;5.99;100.00
41898;BME280;27576;53.366;-1.498;2023-01-29T13:14:47;100797.91;;;5.93;100.00
41898;BME280;27576;53.366;-1.498;2023-01-29T13:17:26;100766.06;;;5.67;100.00
41898;BME280;27576;53.366;-1.498;2023-01-29T13:20:00;100777.69;;;5.80;100.00
41898;BME280;27576;53.366;-1.498;2023-01-29T13:22:32;100764.47;;;5.71;100.00
41898;BME280;27576;53.366;-1.498;2023-01-29T13:24:59;100770.09;;;5.83;100.00
41898;BME280;27576;53.366;-1.498;2023-01-29T13:27:27;100777.03;;;5.85;100.00
41898;BME280;27576;53.366;-1.498;2023-01-29T13:29:53;100746.53;;;5.72;100.00
41898;BME280;27576;53.366;-1.498;2023-01-29T13:32:23;100761.53;;;5.84;100.00
41898;BME280;27576;53.366;-1.498;2023-01-29T13:34:49;100757.41;;;5.87;100.00
41898;BME280;27576;53.366;-1.498;2023-01-29T13:37:30;100711.41;;;5.73;100.00
41898;BME280;27576;53.366;-1.498;2023-01-29T13:39:58;100718.78;;;5.86;100.00
41898;BME280;27576;53.366;-1.498;2023-01-29T13:42:45;100745.88;;;6.00;100.00
41898;BME280;27576;53.366;-1.498;2023-01-29T13:45:29;100752.91;;;6.04;100.00
41898;BME280;27576;53.366;-1.498;2023-01-29T13:48:08;100756.56;;;6.11;100.00
41898;BME280;27576;53.366;-1.498;2023-01-29T13:50:40;100727.56;;;6.15;100.00
41898;BME280;27576;53.366;-1.498;2023-01-29T13:53:59;100726.69;;;6.38;100.00
41898;BME280;27576;53.366;-1.498;2023-01-29T13:59:05;100724.50;;;7.57;100.00
41898;BME280;27576;53.366;-1.498;2023-01-29T14:06:48;100707.22;;;8.14;100.00
41898;BME280;27576;53.366;-1.498;2023-01-29T14:11:58;100709.81;;;7.83;100.00
41898;BME280;27576;53.366;-1.498;2023-01-29T14:17:15;100676.75;;;7.13;100.00
41898;BME280;27576;53.366;-1.498;2023-01-29T14:20:00;100707.44;;;7.05;100.00
41898;BME280;27576;53.366;-1.498;2023-01-29T14:22:28;100692.34;;;6.91;100.00
41898;BME280;27576;53.366;-1.498;2023-01-29T14:24:57;100699.94;;;6.86;100.00
41898;BME280;27576;53.366;-1.498;2023-01-29T14:27:24;100655.00;;;6.51;100.00
41898;BME280;27576;53.366;-1.498;2023-01-29T14:29:50;100681.50;;;6.48;100.00
41898;BME280;27576;53.366;-1.498;2023-01-29T14:32:24;100679.66;;;6.44;100.00
41898;BME280;27576;53.366;-1.498;2023-01-29T14:35:04;100648.97;;;6.25;100.00
41898;BME280;27576;53.366;-1.498;2023-01-29T14:37:37;100644.50;;;6.19;100.00
41898;BME280;27576;53.366;-1.498;2023-01-29T14:42:37;100669.81;;;6.32;100.00
41898;BME280;27576;53.366;-1.498;2023-01-29T14:47:52;100667.09;;;6.28;100.00
41898;BME280;27576;53.366;-1.498;2023-01-29T14:52:57;100666.13;;;6.24;100.00
41898;BME280;27576;53.366;-1.498;2023-01-29T14:58:45;100657.38;;;6.19;100.00
41898;BME280;27576;53.366;-1.498;2023-01-29T15:01:19;100648.75;;;6.17;100.00
41898;BME280;27576;53.366;-1.498;2023-01-29T15:03:51;100610.53;;;6.04;100.00